Time;durP1;ratioP1;P1;durP2;ratioP2;P2;SDS_P1;SDS_P2;PMS_P1;PMS_P2;Temp;Humidity;BMP_temperature;BMP_pressure;BME280_temperature;BME280_humidity;BME280_pressure;Samples;Min_cycle;Max_cycle;Signal;HPM_P1;HPM_P2
2024/03/10 00:01:26;;;;;;;19.73;15.77;;;10.30;99.90;;;;;;5035643;28;20429;-68
2024/03/10 00:03:52;;;;;;;18.87;15.10;;;10.30;99.90;;;;;;5035397;28;20519;-68
2024/03/10 00:06:18;;;;;;;19.57;15.60;;;10.30;99.90;;;;;;5035425;28;20433;-68
2024/03/10 00:08:44;;;;;;;17.83;14.03;;;10.20;99.90;;;;;;5035868;28;21186;-68
2024/03/10 00:11:10;;;;;;;21.27;15.87;;;10.20;99.90;;;;;;5035960;28;20194;-68
2024/03/10 00:13:36;;;;;;;18.47;14.80;;;10.20;99.90;;;;;;5033649;28;20523;-68
2024/03/10 00:16:02;;;;;;;20.20;15.10;;;10.20;99.90;;;;;;5035130;28;20739;-68
2024/03/10 00:18:28;;;;;;;19.50;14.43;;;10.10;99.90;;;;;;5032223;28;20446;-68
2024/03/10 00:20:57;;;;;;;18.63;14.70;;;10.10;99.90;;;;;;5033759;28;20445;-68
2024/03/10 00:23:24;;;;;;;18.90;15.13;;;10.10;99.90;;;;;;5033682;28;20214;-68
2024/03/10 00:25:50;;;;;;;20.00;15.17;;;10.10;99.90;;;;;;5035363;28;21016;-68
2024/03/10 00:28:16;;;;;;;17.47;14.37;;;10.00;99.90;;;;;;5035475;28;20979;-68
2024/03/10 00:30:41;;;;;;;17.90;13.90;;;10.00;99.90;;;;;;5035920;28;20429;-68
2024/03/10 00:33:07;;;;;;;18.80;14.80;;;10.00;99.90;;;;;;5035580;28;20189;-68
2024/03/10 00:35:36;;;;;;;19.47;14.97;;;9.90;99.90;;;;;;5033616;28;20196;-68
2024/03/10 00:38:02;;;;;;;17.90;15.00;;;9.90;99.90;;;;;;5035992;28;20190;-68
2024/03/10 00:40:28;;;;;;;17.93;14.10;;;9.90;99.90;;;;;;5034299;28;20441;-68
2024/03/10 00:42:53;;;;;;;19.50;14.70;;;9.90;99.90;;;;;;5034780;28;20982;-68
2024/03/10 00:45:19;;;;;;;19.63;14.77;;;9.90;99.90;;;;;;5035056;28;20179;-68
2024/03/10 00:47:47;;;;;;;18.23;14.67;;;9.90;99.90;;;;;;5030659;28;20710;-68
2024/03/10 00:50:14;;;;;;;18.57;15.07;;;9.90;99.90;;;;;;5032750;28;20247;-67
2024/03/10 00:52:40;;;;;;;16.50;14.13;;;9.80;99.90;;;;;;5028834;28;20506;-68
2024/03/10 00:55:07;;;;;;;19.57;14.93;;;9.80;99.90;;;;;;5032899;28;20471;-71
2024/03/10 00:57:33;;;;;;;17.73;13.83;;;9.80;99.90;;;;;;5044216;28;20526;-70
2024/03/10 00:59:58;;;;;;;19.20;14.23;;;9.70;99.90;;;;;;5034289;28;20951;-70
2024/03/10 01:02:25;;;;;;;16.90;14.20;;;9.70;99.90;;;;;;5032056;28;20221;-69
2024/03/10 01:04:51;;;;;;;18.60;15.00;;;9.80;99.90;;;;;;5032176;28;20263;-69
2024/03/10 01:07:17;;;;;;;19.60;15.33;;;9.70;99.90;;;;;;5033179;28;20971;-68
2024/03/10 01:09:43;;;;;;;18.60;14.10;;;9.70;99.90;;;;;;5033330;28;20192;-68
2024/03/10 01:12:10;;;;;;;20.87;15.00;;;9.70;99.90;;;;;;5033349;28;20645;-69
2024/03/10 01:14:36;;;;;;;19.17;14.40;;;9.70;99.90;;;;;;5032983;28;20533;-68
2024/03/10 01:17:04;;;;;;;19.47;14.90;;;9.60;99.90;;;;;;5032587;28;20433;-69
2024/03/10 01:19:32;;;;;;;18.70;14.27;;;9.60;99.90;;;;;;5033115;28;20433;-69
2024/03/10 01:22:01;;;;;;;19.23;13.37;;;9.60;99.90;;;;;;5034765;28;20456;-70
2024/03/10 01:24:26;;;;;;;17.77;13.77;;;9.60;99.90;;;;;;5033706;28;20482;-68
2024/03/10 01:26:52;;;;;;;18.87;14.37;;;9.60;99.90;;;;;;5034866;28;20838;-70
2024/03/10 01:29:18;;;;;;;18.97;14.37;;;9.60;99.90;;;;;;5033229;28;20549;-68
2024/03/10 01:31:44;;;;;;;18.63;14.50;;;9.60;99.90;;;;;;5033403;28;20762;-69
2024/03/10 01:34:10;;;;;;;19.47;14.80;;;9.60;99.90;;;;;;5034612;28;20497;-68
2024/03/10 01:36:37;;;;;;;20.00;14.90;;;9.60;99.90;;;;;;5033517;28;20936;-69
2024/03/10 01:39:03;;;;;;;18.50;13.83;;;9.60;99.90;;;;;;5033590;28;20182;-70
2024/03/10 01:41:29;;;;;;;18.63;14.90;;;9.70;99.90;;;;;;5033735;28;20476;-69
2024/03/10 01:43:54;;;;;;;16.23;13.20;;;9.60;99.90;;;;;;5034756;28;20571;-68
2024/03/10 01:46:21;;;;;;;20.03;14.77;;;9.70;99.90;;;;;;5033452;28;20221;-69
2024/03/10 01:48:48;;;;;;;17.77;13.90;;;9.70;99.90;;;;;;5033831;28;20304;-68
2024/03/10 01:51:14;;;;;;;20.43;15.10;;;9.70;99.90;;;;;;5033411;28;20424;-67
2024/03/10 01:53:41;;;;;;;20.60;14.70;;;9.70;99.90;;;;;;5033963;28;20494;-68
2024/03/10 01:56:07;;;;;;;18.27;14.57;;;9.70;99.90;;;;;;5034217;28;20421;-69
2024/03/10 01:58:36;;;;;;;18.43;14.77;;;9.70;99.90;;;;;;5032450;28;20428;-70
2024/03/10 02:01:03;;;;;;;17.50;13.57;;;9.70;99.90;;;;;;5034294;28;20420;-68
2024/03/10 02:03:33;;;;;;;19.27;13.70;;;9.70;99.90;;;;;;5032432;28;20488;-68
2024/03/10 02:05:59;;;;;;;18.80;14.43;;;9.70;99.90;;;;;;5033721;28;20428;-67
2024/03/10 02:08:26;;;;;;;16.43;13.30;;;9.70;99.90;;;;;;5032904;28;20428;-68
2024/03/10 02:10:52;;;;;;;18.60;14.63;;;9.70;99.90;;;;;;5034095;28;20455;-68
2024/03/10 02:13:18;;;;;;;19.37;14.53;;;9.70;99.90;;;;;;5033466;28;20426;-67
2024/03/10 02:16:04;;;;;;;17.20;13.40;;;9.70;99.90;;;;;;5033383;28;20189;-70
2024/03/10 02:18:32;;;;;;;19.33;14.30;;;9.60;99.90;;;;;;5047898;28;20491;-70
2024/03/10 02:20:58;;;;;;;17.00;13.60;;;9.70;99.90;;;;;;5034061;28;20440;-67
2024/03/10 02:23:42;;;;;;;20.03;14.97;;;9.60;99.90;;;;;;5032286;28;20479;-70
2024/03/10 02:26:09;;;;;;;17.80;13.60;;;9.60;99.90;;;;;;5033821;28;20518;-68
2024/03/10 02:28:36;;;;;;;17.87;14.20;;;9.60;99.90;;;;;;5032307;28;20437;-69
2024/03/10 02:47:36;;;;;;;20.03;14.43;;;9.50;99.90;;;;;;5032143;28;20451;-70
2024/03/10 02:50:02;;;;;;;18.60;14.47;;;9.50;99.90;;;;;;5033748;28;21009;-70
2024/03/10 02:52:28;;;;;;;19.90;15.40;;;9.50;99.90;;;;;;5031741;28;20971;-68
2024/03/10 02:54:56;;;;;;;16.87;13.60;;;9.50;99.90;;;;;;5048286;28;20548;-69
2024/03/10 02:57:22;;;;;;;17.73;14.40;;;9.50;99.90;;;;;;5032232;28;20213;-69
2024/03/10 02:59:48;;;;;;;21.67;15.97;;;9.40;99.90;;;;;;5033029;28;21104;-70
2024/03/10 03:02:18;;;;;;;18.03;14.30;;;9.40;99.90;;;;;;5031790;28;20525;-69
2024/03/10 03:04:45;;;;;;;22.03;14.33;;;9.40;99.90;;;;;;5032483;28;20429;-70
2024/03/10 03:07:11;;;;;;;20.30;15.03;;;9.40;99.90;;;;;;5032773;28;20443;-69
2024/03/10 03:09:38;;;;;;;19.70;15.30;;;9.40;99.90;;;;;;5032859;28;20813;-69
2024/03/10 03:12:04;;;;;;;20.90;15.57;;;9.40;99.90;;;;;;5032248;28;20444;-67
2024/03/10 03:14:30;;;;;;;19.73;15.13;;;9.40;99.90;;;;;;5032466;28;20440;-69
2024/03/10 03:16:56;;;;;;;20.40;15.50;;;9.40;99.90;;;;;;5036984;28;20806;-69
2024/03/10 03:19:22;;;;;;;20.73;15.77;;;9.40;99.90;;;;;;5035629;28;20688;-69
2024/03/10 03:21:48;;;;;;;18.73;15.00;;;9.30;99.90;;;;;;5036498;28;20201;-67
2024/03/10 03:24:15;;;;;;;19.23;15.37;;;9.30;99.90;;;;;;5034231;28;20495;-68
2024/03/10 03:26:42;;;;;;;18.50;14.60;;;9.30;99.90;;;;;;5035866;28;20958;-69
2024/03/10 03:29:09;;;;;;;17.70;13.83;;;9.30;99.90;;;;;;5036537;28;20487;-68
2024/03/10 03:31:35;;;;;;;18.80;15.17;;;9.20;99.90;;;;;;5035807;28;20560;-68
2024/03/10 03:34:00;;;;;;;21.00;15.37;;;9.20;99.90;;;;;;5036593;28;20911;-71
2024/03/10 03:36:26;;;;;;;19.57;15.43;;;9.00;99.90;;;;;;5035599;28;20384;-70
2024/03/10 03:38:52;;;;;;;17.63;14.00;;;9.00;99.90;;;;;;5036569;28;20275;-68
2024/03/10 03:41:18;;;;;;;21.60;16.10;;;9.00;99.90;;;;;;5035119;28;20228;-68
2024/03/10 03:43:44;;;;;;;21.57;15.80;;;9.00;99.90;;;;;;5036661;28;20242;-69
2024/03/10 03:46:09;;;;;;;20.47;14.63;;;8.90;99.90;;;;;;5034916;28;20185;-69
2024/03/10 03:48:36;;;;;;;18.87;14.60;;;8.90;99.90;;;;;;5036231;28;20459;-70
2024/03/10 03:51:02;;;;;;;19.77;14.60;;;9.00;99.90;;;;;;5036548;28;20213;-68
2024/03/10 03:53:28;;;;;;;19.97;14.70;;;8.90;99.90;;;;;;5034077;28;20479;-69
2024/03/10 03:55:54;;;;;;;19.53;15.50;;;9.00;99.90;;;;;;5036261;28;20482;-68
2024/03/10 03:58:21;;;;;;;21.07;16.07;;;8.90;99.90;;;;;;5034285;28;20240;-68
2024/03/10 04:00:47;;;;;;;22.63;15.53;;;8.90;99.90;;;;;;5035868;28;20437;-68
2024/03/10 04:03:13;;;;;;;20.67;14.23;;;8.90;99.90;;;;;;5035503;28;20464;-69
2024/03/10 04:05:40;;;;;;;22.53;15.83;;;8.90;99.90;;;;;;5035731;28;20441;-69
2024/03/10 04:08:07;;;;;;;19.43;13.77;;;8.80;99.90;;;;;;5035782;28;20433;-70
2024/03/10 04:10:35;;;;;;;17.20;13.80;;;8.80;99.90;;;;;;5035242;28;21081;-70
2024/03/10 04:13:05;;;;;;;19.43;15.47;;;8.80;99.90;;;;;;5035411;28;20432;-70
2024/03/10 04:15:35;;;;;;;18.97;14.50;;;8.80;99.90;;;;;;5034815;28;20429;-68
2024/03/10 04:18:04;;;;;;;20.27;15.10;;;8.80;99.90;;;;;;5035304;28;20440;-68
2024/03/10 04:20:31;;;;;;;19.67;14.53;;;8.80;99.90;;;;;;5034935;28;20433;-71
2024/03/10 04:22:57;;;;;;;19.27;14.47;;;8.70;99.90;;;;;;5036021;28;20471;-70
2024/03/10 04:25:23;;;;;;;17.83;14.37;;;8.70;99.90;;;;;;5033796;28;20451;-68
2024/03/10 04:27:49;;;;;;;18.17;14.07;;;8.70;99.90;;;;;;5035009;28;20931;-68
2024/03/10 04:30:16;;;;;;;18.93;14.60;;;8.70;99.90;;;;;;5034582;28;20251;-69
2024/03/10 04:32:41;;;;;;;22.00;14.33;;;8.60;99.90;;;;;;5035934;28;20197;-68
2024/03/10 04:35:07;;;;;;;19.57;14.60;;;8.70;99.90;;;;;;5035232;28;20440;-69
2024/03/10 04:37:33;;;;;;;20.13;14.40;;;8.60;99.90;;;;;;5035224;28;20210;-69
2024/03/10 04:39:59;;;;;;;18.10;14.67;;;8.60;99.90;;;;;;5036143;28;20424;-68
2024/03/10 04:42:25;;;;;;;19.17;15.03;;;8.60;99.90;;;;;;5033959;28;20213;-69
2024/03/10 04:44:50;;;;;;;19.50;14.67;;;8.50;99.90;;;;;;5035976;28;20739;-68
2024/03/10 04:47:16;;;;;;;18.60;14.53;;;8.50;99.90;;;;;;5034366;28;20224;-70
2024/03/10 04:49:43;;;;;;;20.40;15.77;;;8.50;99.90;;;;;;5035874;28;20274;-69
2024/03/10 04:52:08;;;;;;;19.90;14.93;;;8.50;99.90;;;;;;5035440;28;20448;-68
2024/03/10 04:54:35;;;;;;;19.30;15.03;;;8.50;99.90;;;;;;5035064;28;20435;-68
2024/03/10 04:57:01;;;;;;;20.30;15.47;;;8.40;99.90;;;;;;5034957;28;20190;-69
2024/03/10 04:59:27;;;;;;;21.20;15.70;;;8.30;99.90;;;;;;5034950;28;20903;-70
2024/03/10 05:01:56;;;;;;;18.50;14.43;;;8.30;99.90;;;;;;5035181;28;20192;-69
2024/03/10 05:04:22;;;;;;;20.77;15.23;;;8.30;99.90;;;;;;5034533;28;20966;-69
2024/03/10 05:06:48;;;;;;;19.63;14.07;;;8.30;99.90;;;;;;5035547;28;21057;-69
2024/03/10 05:09:14;;;;;;;19.97;15.00;;;8.30;99.90;;;;;;5034104;28;20424;-69
2024/03/10 05:11:40;;;;;;;20.20;15.57;;;8.30;99.90;;;;;;5034622;28;21124;-70
2024/03/10 05:14:06;;;;;;;21.17;15.20;;;8.40;99.90;;;;;;5034221;28;20193;-71
2024/03/10 05:16:31;;;;;;;21.77;15.00;;;8.30;99.90;;;;;;5034942;28;20187;-68
2024/03/10 05:18:57;;;;;;;18.23;14.10;;;8.30;99.90;;;;;;5034803;28;20189;-68
2024/03/10 05:21:25;;;;;;;18.17;14.33;;;8.20;99.90;;;;;;5034566;28;20190;-69
2024/03/10 05:23:53;;;;;;;18.87;14.97;;;8.20;99.90;;;;;;5034698;28;20309;-67
2024/03/10 05:26:19;;;;;;;20.50;14.03;;;8.20;99.90;;;;;;5034107;28;20723;-69
2024/03/10 05:28:45;;;;;;;17.33;14.20;;;8.10;99.90;;;;;;5034103;28;20994;-69
2024/03/10 05:31:33;;;;;;;21.33;14.60;;;8.20;99.90;;;;;;5033287;28;20429;-68
2024/03/10 05:34:00;;;;;;;20.10;15.13;;;8.10;99.90;;;;;;5034756;28;20220;-70
2024/03/10 05:36:29;;;;;;;19.10;14.60;;;8.10;99.90;;;;;;5033684;28;20420;-69
2024/03/10 05:38:55;;;;;;;20.50;13.80;;;8.20;99.90;;;;;;5033916;28;20905;-68
2024/03/10 05:41:21;;;;;;;22.10;14.30;;;8.20;99.90;;;;;;5033421;28;20417;-67
2024/03/10 05:43:47;;;;;;;19.90;14.07;;;8.20;99.90;;;;;;5034470;28;20525;-70
2024/03/10 05:46:13;;;;;;;17.43;13.50;;;8.10;99.90;;;;;;5034095;28;20432;-69
2024/03/10 05:48:42;;;;;;;17.10;14.30;;;8.10;99.90;;;;;;5034269;28;20564;-69
2024/03/10 05:51:13;;;;;;;20.83;15.90;;;8.10;99.90;;;;;;5033656;28;20445;-68
2024/03/10 05:53:39;;;;;;;20.47;14.20;;;8.00;99.90;;;;;;5034439;28;20432;-69
2024/03/10 05:56:07;;;;;;;17.50;13.73;;;8.10;99.90;;;;;;5033726;28;20441;-69
2024/03/10 05:58:34;;;;;;;21.30;14.80;;;8.00;99.90;;;;;;5034215;28;20445;-70
2024/03/10 06:01:03;;;;;;;21.53;15.20;;;8.00;99.90;;;;;;5034415;28;20611;-68
2024/03/10 06:03:29;;;;;;;18.30;13.67;;;8.00;99.90;;;;;;5034030;28;20474;-67
2024/03/10 06:05:54;;;;;;;18.83;14.10;;;8.00;99.90;;;;;;5034186;28;20425;-69
2024/03/10 06:08:20;;;;;;;20.80;14.90;;;8.00;99.90;;;;;;5033634;28;20695;-70
2024/03/10 06:10:47;;;;;;;18.77;14.17;;;8.00;99.90;;;;;;5033313;28;20181;-70
2024/03/10 06:13:13;;;;;;;19.90;14.53;;;7.90;99.90;;;;;;5033708;28;21806;-70
2024/03/10 06:15:39;;;;;;;16.23;13.40;;;8.00;99.90;;;;;;5034240;28;20515;-68
2024/03/10 06:18:31;;;;;;;18.77;14.50;;;8.00;99.90;;;;;;5033357;28;20425;-71
2024/03/10 06:26:26;;;;;;;17.23;13.10;;;8.00;99.90;;;;;;5033812;28;20424;-70
2024/03/10 06:28:52;;;;;;;17.60;13.20;;;7.90;99.90;;;;;;5033958;28;20436;-68
2024/03/10 06:31:18;;;;;;;18.53;14.03;;;8.00;99.90;;;;;;5033639;28;20714;-68
2024/03/10 06:33:45;;;;;;;20.60;13.53;;;7.90;99.90;;;;;;5033809;28;20276;-70
2024/03/10 06:36:12;;;;;;;19.10;15.60;;;7.90;99.90;;;;;;5032876;28;20596;-70
2024/03/10 06:38:39;;;;;;;16.90;13.57;;;8.00;99.90;;;;;;5033821;28;20440;-69
2024/03/10 06:41:08;;;;;;;17.70;14.30;;;8.00;99.90;;;;;;5033269;28;20469;-70
2024/03/10 06:43:34;;;;;;;19.53;13.73;;;8.00;99.90;;;;;;5033378;28;20464;-70
2024/03/10 06:46:00;;;;;;;19.40;13.73;;;8.10;99.90;;;;;;5033706;28;20460;-68
2024/03/10 06:48:26;;;;;;;18.33;13.03;;;8.10;99.90;;;;;;5033187;28;20857;-70
2024/03/10 06:50:52;;;;;;;19.40;14.00;;;8.00;99.90;;;;;;5035595;28;20308;-70
2024/03/10 06:53:17;;;;;;;18.53;13.97;;;8.00;99.90;;;;;;5037595;28;20187;-70
2024/03/10 06:55:44;;;;;;;17.40;13.43;;;8.00;99.90;;;;;;5037736;28;21178;-68
2024/03/10 06:58:11;;;;;;;19.53;13.60;;;8.00;99.90;;;;;;5037689;28;20196;-69
2024/03/10 07:00:38;;;;;;;19.37;14.07;;;8.10;99.90;;;;;;5036912;28;20450;-70
2024/03/10 07:03:05;;;;;;;19.67;14.90;;;8.10;99.90;;;;;;5036961;28;20519;-70
2024/03/10 07:05:33;;;;;;;17.07;12.60;;;7.90;99.90;;;;;;5038381;28;21080;-70
2024/03/10 07:08:00;;;;;;;18.20;14.90;;;8.00;99.90;;;;;;5020010;28;20482;-69
2024/03/10 07:10:27;;;;;;;18.47;14.27;;;8.10;99.90;;;;;;5037207;28;20437;-69
2024/03/10 07:12:53;;;;;;;16.00;13.27;;;8.10;99.90;;;;;;5004418;28;20493;-69
2024/03/10 07:15:18;;;;;;;19.27;13.50;;;8.10;99.90;;;;;;5037139;28;20440;-68
2024/03/10 07:17:44;;;;;;;19.83;14.00;;;8.10;99.90;;;;;;5037642;28;20221;-69
2024/03/10 07:20:10;;;;;;;18.93;13.90;;;8.10;99.90;;;;;;5004001;28;20193;-68
2024/03/10 07:22:38;;;;;;;18.63;14.03;;;8.20;99.90;;;;;;5036416;28;20340;-69
2024/03/10 07:25:08;;;;;;;17.33;14.23;;;8.20;99.90;;;;;;5036996;28;21070;-68
2024/03/10 07:27:34;;;;;;;19.27;14.40;;;8.20;99.90;;;;;;5036731;28;20942;-70
2024/03/10 07:30:04;;;;;;;19.40;14.17;;;8.30;99.90;;;;;;5037183;28;20523;-69
2024/03/10 07:32:30;;;;;;;18.40;14.53;;;8.30;99.90;;;;;;5036957;28;20939;-69
2024/03/10 07:34:57;;;;;;;19.60;14.53;;;8.30;99.90;;;;;;5034949;28;20471;-69
2024/03/10 07:37:23;;;;;;;20.57;14.37;;;8.40;99.90;;;;;;5036348;28;20433;-68
2024/03/10 07:39:49;;;;;;;19.03;13.67;;;8.30;99.90;;;;;;5036681;28;20443;-70
2024/03/10 07:42:17;;;;;;;19.40;13.60;;;8.30;99.90;;;;;;5036679;28;20273;-70
2024/03/10 07:44:43;;;;;;;18.43;14.80;;;8.40;99.90;;;;;;5036390;28;20197;-68
2024/03/10 07:47:10;;;;;;;19.70;13.93;;;8.40;99.90;;;;;;5036210;28;20436;-68
2024/03/10 07:49:35;;;;;;;18.10;14.63;;;8.40;99.90;;;;;;5036630;28;20836;-68
2024/03/10 07:52:01;;;;;;;20.50;13.70;;;8.40;99.90;;;;;;5036935;28;20467;-68
2024/03/10 07:54:27;;;;;;;18.43;13.43;;;8.40;99.90;;;;;;5035941;28;20739;-69
2024/03/10 07:56:55;;;;;;;18.10;14.30;;;8.50;99.90;;;;;;5036357;28;20213;-70
2024/03/10 07:59:21;;;;;;;20.30;13.90;;;8.50;99.90;;;;;;5036731;28;20277;-69
2024/03/10 08:01:51;;;;;;;17.07;13.70;;;8.60;99.90;;;;;;5035293;28;20545;-68
2024/03/10 08:04:17;;;;;;;19.70;14.80;;;8.60;99.90;;;;;;5036461;28;20468;-70
2024/03/10 08:06:43;;;;;;;20.27;14.00;;;8.60;99.90;;;;;;5035999;28;20444;-68
2024/03/10 08:09:09;;;;;;;19.93;14.20;;;8.60;99.90;;;;;;5036077;28;20955;-69
2024/03/10 08:11:35;;;;;;;21.83;14.83;;;8.70;99.90;;;;;;5036376;28;20844;-70
2024/03/10 08:14:01;;;;;;;18.63;14.70;;;8.70;99.90;;;;;;5036359;28;20440;-70
2024/03/10 08:16:27;;;;;;;18.47;14.17;;;8.80;99.90;;;;;;5035800;28;20429;-68
2024/03/10 08:18:53;;;;;;;20.50;15.13;;;8.80;99.90;;;;;;5034948;28;20581;-69
2024/03/10 08:21:19;;;;;;;18.40;14.60;;;8.80;99.90;;;;;;5036250;28;20436;-70
2024/03/10 08:23:44;;;;;;;18.40;14.83;;;8.90;99.90;;;;;;5036178;28;20214;-69
2024/03/10 08:26:10;;;;;;;18.97;14.63;;;8.90;99.90;;;;;;5035968;28;20305;-69
2024/03/10 08:28:36;;;;;;;20.27;15.00;;;8.90;99.90;;;;;;5035794;28;20950;-68
2024/03/10 08:31:04;;;;;;;21.40;15.60;;;9.00;99.90;;;;;;5035189;28;20242;-68
2024/03/10 08:33:29;;;;;;;19.23;14.53;;;9.00;99.90;;;;;;5036074;28;20432;-68
2024/03/10 08:35:55;;;;;;;20.23;15.70;;;9.00;99.90;;;;;;5034883;28;20843;-70
2024/03/10 08:38:21;;;;;;;19.90;14.60;;;9.10;99.90;;;;;;5035606;28;20177;-70
2024/03/10 08:40:47;;;;;;;21.93;16.40;;;9.10;99.90;;;;;;5034982;28;20243;-69
2024/03/10 08:43:13;;;;;;;22.50;15.60;;;9.10;99.90;;;;;;5035464;28;20476;-69
2024/03/10 08:45:39;;;;;;;18.97;15.50;;;9.20;99.90;;;;;;5035631;28;20636;-69
2024/03/10 08:48:09;;;;;;;21.03;15.97;;;9.20;99.90;;;;;;5035519;28;20565;-68
2024/03/10 08:50:39;;;;;;;22.33;17.77;;;9.30;99.90;;;;;;5035665;28;20544;-69
2024/03/10 08:53:04;;;;;;;23.83;19.03;;;9.30;99.90;;;;;;5035172;28;20456;-67
2024/03/10 08:55:30;;;;;;;28.37;21.07;;;9.40;99.90;;;;;;5035579;28;20440;-68
2024/03/10 08:57:56;;;;;;;28.07;21.03;;;9.40;99.90;;;;;;5034749;28;20909;-67
2024/03/10 09:00:21;;;;;;;32.40;22.77;;;9.60;99.90;;;;;;5035623;28;20221;-69
2024/03/10 09:02:49;;;;;;;35.37;26.97;;;9.70;99.90;;;;;;5034812;28;20217;-69
2024/03/10 09:05:15;;;;;;;34.70;26.47;;;9.80;99.90;;;;;;5035284;28;20193;-68
2024/03/10 09:07:44;;;;;;;44.57;33.30;;;9.90;99.90;;;;;;5035223;28;20475;-69
2024/03/10 09:10:10;;;;;;;49.50;37.70;;;9.90;99.90;;;;;;5035402;28;21128;-69
2024/03/10 09:12:36;;;;;;;44.17;34.60;;;9.90;99.90;;;;;;5034547;28;20458;-70
2024/03/10 09:15:02;;;;;;;43.60;34.57;;;9.90;99.90;;;;;;5034975;28;20674;-69
2024/03/10 09:17:29;;;;;;;46.70;36.57;;;10.00;99.90;;;;;;5034031;28;20380;-70
2024/03/10 09:19:55;;;;;;;48.50;32.80;;;10.00;99.90;;;;;;5034775;28;20476;-69
2024/03/10 09:22:20;;;;;;;41.30;31.80;;;10.00;99.90;;;;;;5034640;28;20444;-69
2024/03/10 09:24:49;;;;;;;39.93;29.67;;;10.00;99.90;;;;;;5034536;28;20429;-67
2024/03/10 09:27:14;;;;;;;35.53;27.90;;;10.10;99.90;;;;;;5034488;28;20227;-69
2024/03/10 09:29:40;;;;;;;28.03;21.43;;;10.20;99.90;;;;;;5034954;28;20468;-69
2024/03/10 09:32:06;;;;;;;23.03;19.00;;;10.30;99.90;;;;;;5035270;28;20201;-68
2024/03/10 09:34:32;;;;;;;21.73;17.57;;;10.40;99.90;;;;;;5034880;28;20206;-69
2024/03/10 09:36:58;;;;;;;22.90;17.63;;;10.60;99.90;;;;;;5016873;28;20959;-68
2024/03/10 09:39:24;;;;;;;21.33;16.33;;;10.70;99.90;;;;;;5035024;28;20436;-69
2024/03/10 09:41:51;;;;;;;21.47;16.90;;;10.90;99.90;;;;;;5033863;28;20662;-68
2024/03/10 09:44:22;;;;;;;22.17;16.83;;;11.10;99.90;;;;;;5034835;28;20503;-67
2024/03/10 09:46:49;;;;;;;20.87;16.33;;;11.30;99.90;;;;;;5033159;28;20439;-68
2024/03/10 09:49:17;;;;;;;22.00;17.20;;;11.50;99.90;;;;;;5034985;28;20473;-68
2024/03/10 09:51:50;;;;;;;18.77;16.70;;;11.70;99.90;;;;;;5034240;28;21069;-68
2024/03/10 09:54:17;;;;;;;19.40;16.03;;;11.90;99.90;;;;;;5035242;28;20428;-67
2024/03/10 09:56:45;;;;;;;22.40;17.40;;;12.10;99.90;;;;;;5034281;28;20965;-69
2024/03/10 09:59:34;;;;;;;18.97;16.07;;;12.40;99.90;;;;;;5034701;28;20436;-69
2024/03/10 10:02:05;;;;;;;19.73;16.23;;;12.50;99.90;;;;;;5033444;28;20440;-68
2024/03/10 10:04:41;;;;;;;22.57;17.03;;;12.70;99.90;;;;;;5034123;28;20471;-69
2024/03/10 10:07:11;;;;;;;22.17;17.50;;;12.80;99.90;;;;;;5033971;28;20441;-68
2024/03/10 10:09:36;;;;;;;19.30;15.80;;;12.90;99.90;;;;;;5033927;28;20441;-69
2024/03/10 10:12:02;;;;;;;22.90;17.80;;;12.90;99.90;;;;;;5034550;28;20538;-69
2024/03/10 10:14:29;;;;;;;19.57;16.47;;;13.10;99.90;;;;;;5034234;28;20778;-69
2024/03/10 10:16:57;;;;;;;19.60;17.03;;;13.20;99.90;;;;;;5032869;28;20476;-69
2024/03/10 10:19:25;;;;;;;20.33;17.00;;;13.50;99.90;;;;;;5034707;28;20526;-68
2024/03/10 10:21:52;;;;;;;20.07;17.30;;;13.60;99.90;;;;;;5031842;28;20435;-67
2024/03/10 10:24:19;;;;;;;20.27;16.83;;;13.80;99.90;;;;;;5034042;28;20995;-70
2024/03/10 10:27:05;;;;;;;18.47;15.07;;;13.90;99.90;;;;;;5032850;28;20907;-68
2024/03/10 10:29:49;;;;;;;19.80;15.97;;;14.00;99.90;;;;;;5033775;28;20500;-70
2024/03/10 10:32:20;;;;;;;18.87;16.33;;;14.20;99.90;;;;;;5034724;28;20454;-70
2024/03/10 10:34:46;;;;;;;22.17;18.00;;;14.20;99.90;;;;;;5032717;28;20464;-70
2024/03/10 10:37:12;;;;;;;19.53;16.73;;;14.30;99.90;;;;;;5034412;28;20527;-69
2024/03/10 10:39:39;;;;;;;21.30;17.00;;;14.40;99.90;;;;;;5033449;28;20440;-71
2024/03/10 10:42:07;;;;;;;19.07;15.83;;;14.40;99.90;;;;;;5033701;28;20444;-69
2024/03/10 10:44:34;;;;;;;21.23;17.40;;;14.40;99.90;;;;;;5032764;28;20476;-69
2024/03/10 10:47:03;;;;;;;19.03;16.40;;;14.40;99.90;;;;;;5033360;28;20497;-70
2024/03/10 10:49:29;;;;;;;18.03;16.13;;;14.40;99.90;;;;;;5033890;28;20511;-69
2024/03/10 10:51:56;;;;;;;19.70;16.90;;;14.40;99.90;;;;;;5032921;28;20456;-69
2024/03/10 10:54:23;;;;;;;22.00;18.00;;;14.50;99.90;;;;;;5032939;28;20465;-69
2024/03/10 10:56:56;;;;;;;20.70;17.20;;;14.50;99.90;;;;;;5032239;28;20428;-70
2024/03/10 10:59:25;;;;;;;19.40;16.43;;;14.40;99.90;;;;;;5033132;28;20432;-68
2024/03/10 11:01:56;;;;;;;20.70;17.60;;;14.40;99.90;;;;;;5033078;28;20531;-70
2024/03/10 11:04:25;;;;;;;21.40;18.13;;;14.30;99.90;;;;;;5033057;28;20530;-69
2024/03/10 11:06:55;;;;;;;21.27;17.13;;;14.40;99.90;;;;;;5032854;28;20436;-69
2024/03/10 11:09:28;;;;;;;23.47;18.80;;;14.40;99.90;;;;;;5033116;28;20817;-70
2024/03/10 11:11:54;;;;;;;23.37;18.13;;;14.40;99.90;;;;;;5033339;28;20991;-69
2024/03/10 11:14:27;;;;;;;23.60;18.30;;;14.40;99.90;;;;;;5033831;28;20443;-69
2024/03/10 11:17:18;;;;;;;25.27;18.57;;;14.40;99.90;;;;;;5033169;28;20432;-69
2024/03/10 11:19:48;;;;;;;19.90;17.07;;;14.50;99.90;;;;;;5033457;28;20799;-69
2024/03/10 11:22:14;;;;;;;20.33;17.90;;;14.60;99.90;;;;;;5034317;28;20436;-70
2024/03/10 11:24:40;;;;;;;21.80;19.33;;;14.70;99.90;;;;;;5032471;28;20468;-70
2024/03/10 11:27:18;;;;;;;22.33;18.20;;;14.90;99.90;;;;;;5033852;28;20530;-70
2024/03/10 11:29:44;;;;;;;20.63;18.17;;;14.90;99.90;;;;;;5033124;28;20209;-69
2024/03/10 11:32:31;;;;;;;22.40;18.10;;;15.10;99.90;;;;;;5033390;28;20460;-71
2024/03/10 11:34:59;;;;;;;22.00;18.40;;;15.20;99.90;;;;;;5032891;28;21296;-71
2024/03/10 11:37:25;;;;;;;21.13;18.27;;;15.30;99.90;;;;;;5036465;28;20436;-70
2024/03/10 11:39:51;;;;;;;21.90;18.30;;;15.20;99.90;;;;;;5037205;28;20479;-70
2024/03/10 11:42:18;;;;;;;21.00;18.80;;;15.30;99.60;;;;;;5037980;28;20988;-70
2024/03/10 11:44:46;;;;;;;22.13;18.53;;;15.20;99.70;;;;;;5036677;28;20225;-69
2024/03/10 11:47:11;;;;;;;24.10;19.93;;;15.20;99.60;;;;;;5037188;28;20449;-68
2024/03/10 11:49:37;;;;;;;21.77;18.67;;;15.10;99.90;;;;;;5035824;28;20443;-69
2024/03/10 11:52:07;;;;;;;22.10;18.93;;;15.10;99.90;;;;;;5036343;28;20206;-69
2024/03/10 11:54:35;;;;;;;20.87;18.67;;;15.10;99.90;;;;;;5036963;28;20424;-70
2024/03/10 11:57:02;;;;;;;23.00;18.90;;;15.10;99.90;;;;;;5036513;28;20545;-71
2024/03/10 11:59:29;;;;;;;21.27;18.87;;;15.00;99.90;;;;;;5037697;28;20483;-69
2024/03/10 12:01:57;;;;;;;23.83;19.07;;;15.00;99.90;;;;;;5036153;28;20424;-69
2024/03/10 12:04:22;;;;;;;21.37;18.50;;;15.00;99.90;;;;;;5036517;28;20478;-70
2024/03/10 12:06:49;;;;;;;25.33;19.70;;;14.90;99.90;;;;;;5036673;28;20436;-70
2024/03/10 12:09:21;;;;;;;24.20;19.00;;;14.90;99.90;;;;;;5036332;28;20190;-68
2024/03/10 12:11:46;;;;;;;21.90;17.37;;;14.90;99.90;;;;;;5035998;28;20463;-70
2024/03/10 12:14:15;;;;;;;23.33;19.10;;;14.90;99.90;;;;;;5037372;28;21084;-69
2024/03/10 12:16:47;;;;;;;23.83;19.07;;;14.90;99.90;;;;;;5036775;28;20269;-71
2024/03/10 12:19:14;;;;;;;23.53;19.60;;;14.90;99.90;;;;;;5037211;28;20524;-70
2024/03/10 12:21:39;;;;;;;24.17;20.10;;;14.90;99.90;;;;;;5037112;28;20440;-69
2024/03/10 12:24:06;;;;;;;22.97;19.47;;;14.90;99.90;;;;;;5036242;28;20475;-70
2024/03/10 12:26:32;;;;;;;24.20;19.80;;;14.80;99.90;;;;;;5036164;28;20192;-71
2024/03/10 12:28:58;;;;;;;24.00;19.80;;;14.80;99.90;;;;;;5067908;28;20775;-69
2024/03/10 12:31:26;;;;;;;23.00;19.70;;;14.80;99.90;;;;;;5036782;28;20470;-71
2024/03/10 12:33:52;;;;;;;24.23;20.50;;;14.80;99.90;;;;;;5035776;28;20182;-70
2024/03/10 12:36:20;;;;;;;22.63;19.50;;;14.80;99.90;;;;;;5036565;28;20482;-69
2024/03/10 12:38:45;;;;;;;23.80;20.13;;;14.70;99.90;;;;;;5034764;28;20424;-69
2024/03/10 12:41:20;;;;;;;25.47;20.17;;;14.70;99.90;;;;;;5037037;28;20444;-69
2024/03/10 12:43:47;;;;;;;24.43;21.10;;;14.60;99.90;;;;;;5035030;28;20208;-68
2024/03/10 12:46:18;;;;;;;25.50;21.83;;;14.70;99.90;;;;;;5036154;28;20444;-71
2024/03/10 12:48:45;;;;;;;26.50;21.37;;;14.70;99.90;;;;;;5034341;28;20445;-69
2024/03/10 12:51:11;;;;;;;26.23;21.27;;;14.70;99.90;;;;;;5034659;28;21224;-69
2024/03/10 12:53:39;;;;;;;23.60;19.67;;;14.70;99.90;;;;;;5035397;28;20472;-70
2024/03/10 12:56:05;;;;;;;23.47;20.27;;;14.60;99.90;;;;;;5036176;28;20439;-68